Time;durP1;ratioP1;P1;durP2;ratioP2;P2;SDS_P1;SDS_P2;PMS_P1;PMS_P2;Temp;Humidity;BMP_temperature;BMP_pressure;BME280_temperature;BME280_humidity;BME280_pressure;Samples;Min_cycle;Max_cycle;Signal;HPM_P1;HPM_P2
2022/05/05 00:00:56;;;;;;;9.60;3.30;;;17.70;90.30;;;;;;5050867;28;20020;-79
2022/05/05 00:03:22;;;;;;;10.13;3.22;;;17.60;90.30;;;;;;5050775;28;20053;-79
2022/05/05 00:05:48;;;;;;;11.00;3.33;;;17.60;90.40;;;;;;5050651;28;20014;-79
2022/05/05 00:08:14;;;;;;;8.40;3.25;;;17.60;90.20;;;;;;5049227;28;20044;-79
2022/05/05 00:16:09;;;;;;;5.20;2.70;;;17.80;88.40;;;;;;5050536;28;20028;-79
2022/05/05 00:18:35;;;;;;;8.10;2.90;;;17.80;87.60;;;;;;5050855;28;20457;-78
2022/05/05 00:21:01;;;;;;;8.20;2.50;;;17.90;87.10;;;;;;5050507;28;20017;-79
2022/05/05 00:23:28;;;;;;;8.52;2.80;;;17.80;86.60;;;;;;5050544;28;20024;-79
2022/05/05 00:25:54;;;;;;;10.98;2.83;;;17.80;86.30;;;;;;5050455;28;20445;-79
2022/05/05 00:28:21;;;;;;;8.97;3.10;;;17.80;86.90;;;;;;5050600;28;20333;-79
2022/05/05 00:30:47;;;;;;;9.27;2.47;;;17.80;86.00;;;;;;5050451;28;20044;-79
2022/05/05 00:33:13;;;;;;;6.90;2.88;;;17.80;85.00;;;;;;5050178;28;20029;-79
2022/05/05 00:35:39;;;;;;;9.48;2.75;;;17.80;84.80;;;;;;5050733;28;20082;-79
2022/05/05 00:38:05;;;;;;;7.70;2.30;;;17.80;84.60;;;;;;5050778;28;20029;-79
2022/05/05 00:40:31;;;;;;;7.43;2.70;;;17.80;84.60;;;;;;5050804;28;20100;-79
2022/05/05 00:43:02;;;;;;;7.18;2.65;;;17.80;84.70;;;;;;5050539;28;20025;-79
2022/05/05 00:45:28;;;;;;;7.30;2.40;;;17.70;85.00;;;;;;5050092;28;20025;-79
2022/05/05 00:48:08;;;;;;;14.85;2.83;;;17.60;85.30;;;;;;5050745;28;20175;-79
2022/05/05 00:50:35;;;;;;;8.13;2.92;;;17.60;85.40;;;;;;5050329;28;20029;-79
2022/05/05 00:53:03;;;;;;;9.88;2.80;;;17.70;85.20;;;;;;5050542;28;20106;-79
2022/05/05 00:55:33;;;;;;;7.20;2.50;;;17.60;85.20;;;;;;5050491;28;20059;-79
2022/05/05 00:58:01;;;;;;;6.63;2.30;;;17.60;85.20;;;;;;5050474;28;20063;-78
2022/05/05 01:00:27;;;;;;;8.80;2.45;;;17.60;85.20;;;;;;5052169;28;20120;-79
2022/05/05 01:02:54;;;;;;;7.85;2.70;;;17.60;85.30;;;;;;5053881;28;20052;-79
2022/05/05 01:05:20;;;;;;;;;;;17.60;84.90;;;;;;5054579;28;20075;-78
2022/05/05 01:07:47;;;;;;;5.88;2.05;;;17.60;84.50;;;;;;5054388;28;19908;-79
2022/05/05 01:10:13;;;;;;;5.90;2.50;;;17.60;83.90;;;;;;5054211;28;20024;-80
2022/05/05 01:12:39;;;;;;;7.15;2.60;;;17.60;83.60;;;;;;5053952;28;20037;-79
2022/05/05 01:15:09;;;;;;;7.97;2.88;;;17.50;83.90;;;;;;5053800;28;20032;-80
2022/05/05 01:17:35;;;;;;;4.93;2.10;;;17.60;83.40;;;;;;5053616;28;20166;-79
2022/05/05 01:20:14;;;;;;;8.50;2.30;;;17.60;82.40;;;;;;5053815;28;20021;-79
2022/05/05 01:22:40;;;;;;;7.65;2.75;;;17.60;82.30;;;;;;5053959;28;20273;-79
2022/05/05 01:28:12;;;;;;;4.43;1.98;;;17.50;82.40;;;;;;5054113;28;20040;-79
2022/05/05 01:30:48;;;;;;;6.47;2.15;;;17.50;82.30;;;;;;5053823;28;20130;-79
2022/05/05 01:33:18;;;;;;;8.10;2.72;;;17.50;81.90;;;;;;5053283;28;20430;-78
2022/05/05 01:35:46;;;;;;;5.53;2.05;;;17.50;81.20;;;;;;5053597;28;20029;-79
2022/05/05 01:38:14;;;;;;;5.78;2.35;;;17.60;80.90;;;;;;5053559;28;20182;-79
2022/05/05 01:40:41;;;;;;;4.93;1.90;;;17.60;80.90;;;;;;5053170;28;20033;-79
2022/05/05 01:43:08;;;;;;;5.85;1.80;;;17.60;81.00;;;;;;5051697;28;20064;-79
2022/05/05 01:45:35;;;;;;;7.68;2.15;;;17.60;81.20;;;;;;5053594;28;20029;-78
2022/05/05 01:48:01;;;;;;;4.65;2.17;;;17.60;81.30;;;;;;5053501;28;20017;-79
2022/05/05 01:50:31;;;;;;;4.88;2.08;;;17.60;81.50;;;;;;5053539;28;20036;-79
2022/05/05 01:52:59;;;;;;;6.47;2.28;;;17.60;81.80;;;;;;5053165;28;20041;-79
2022/05/05 01:55:26;;;;;;;7.60;2.58;;;17.60;82.40;;;;;;5052851;28;20048;-80
2022/05/05 01:57:51;;;;;;;;;;;17.60;82.70;;;;;;5053445;28;20503;-79
2022/05/05 02:00:18;;;;;;;7.47;2.35;;;17.60;83.40;;;;;;5085217;28;19909;-78
2022/05/05 02:02:45;;;;;;;6.60;2.78;;;17.50;84.20;;;;;;5052774;28;20053;-79
2022/05/05 02:05:12;;;;;;;8.20;2.58;;;17.50;84.50;;;;;;5052705;28;20025;-79
2022/05/05 02:07:39;;;;;;;10.60;2.85;;;17.50;84.30;;;;;;5052633;28;20113;-78
2022/05/05 02:10:06;;;;;;;9.32;2.65;;;17.40;84.90;;;;;;5052391;28;20025;-79
2022/05/05 02:12:33;;;;;;;;;;;17.30;85.10;;;;;;5052987;28;20059;-79
2022/05/05 02:14:59;;;;;;;11.00;2.97;;;17.20;85.40;;;;;;5052687;28;19904;-78
2022/05/05 02:17:25;;;;;;;8.90;2.97;;;17.20;85.70;;;;;;5052607;28;20028;-78
2022/05/05 02:19:51;;;;;;;10.65;2.78;;;17.20;86.10;;;;;;5050974;28;20044;-79
2022/05/05 02:22:17;;;;;;;5.40;2.53;;;17.20;87.30;;;;;;5052456;28;20064;-78
2022/05/05 02:24:43;;;;;;;8.03;2.63;;;17.30;87.30;;;;;;5052649;28;20025;-78
2022/05/05 02:27:09;;;;;;;5.55;2.58;;;17.30;88.00;;;;;;5052204;28;20259;-79
2022/05/05 02:29:35;;;;;;;8.17;2.90;;;17.30;90.00;;;;;;5051581;28;20033;-78
2022/05/05 02:32:02;;;;;;;11.88;3.28;;;17.30;90.00;;;;;;5052068;28;20028;-79
2022/05/05 02:34:28;;;;;;;;;;;17.30;90.20;;;;;;5052076;28;20041;-78
2022/05/05 02:39:38;;;;;;;9.15;3.20;;;17.30;90.70;;;;;;5052010;28;20032;-79
2022/05/05 02:42:05;;;;;;;9.43;3.30;;;17.30;90.70;;;;;;5051795;28;20377;-78
2022/05/05 02:44:31;;;;;;;11.05;3.05;;;17.20;90.80;;;;;;5052102;28;20033;-78
2022/05/05 02:46:59;;;;;;;8.13;3.30;;;17.30;90.90;;;;;;5051817;28;20024;-79
2022/05/05 02:49:27;;;;;;;5.13;2.70;;;17.30;90.80;;;;;;5050232;28;20028;-79
2022/05/05 02:51:53;;;;;;;10.50;3.60;;;17.30;90.80;;;;;;5051130;28;20089;-78
2022/05/05 02:57:04;;;;;;;6.57;3.13;;;17.30;90.70;;;;;;5051496;28;20369;-79
2022/05/05 02:59:30;;;;;;;5.82;2.97;;;17.30;90.70;;;;;;5051449;28;20025;-79
2022/05/05 03:01:57;;;;;;;9.47;3.43;;;17.30;90.50;;;;;;5051963;28;20032;-79
2022/05/05 03:04:23;;;;;;;11.15;3.45;;;17.40;90.20;;;;;;5051785;28;20130;-79
2022/05/05 03:06:49;;;;;;;7.30;2.97;;;17.50;90.30;;;;;;5051831;28;20032;-78
2022/05/05 03:09:15;;;;;;;11.43;2.87;;;17.50;90.00;;;;;;5050310;28;20430;-78
2022/05/05 03:11:41;;;;;;;8.90;2.87;;;17.50;88.90;;;;;;5051005;28;20104;-79
2022/05/05 03:14:07;;;;;;;11.27;3.20;;;17.60;89.00;;;;;;5051059;28;20108;-79
2022/05/05 03:16:33;;;;;;;6.17;2.60;;;17.60;89.00;;;;;;5050991;28;20092;-79
2022/05/05 03:18:59;;;;;;;8.50;3.27;;;17.60;88.20;;;;;;5051032;28;20108;-79
2022/05/05 03:21:44;;;;;;;3.77;1.73;;;17.60;87.60;;;;;;5050746;28;20033;-78
2022/05/05 03:24:10;;;;;;;12.35;2.33;;;17.60;87.30;;;;;;5051586;28;20093;-79
2022/05/05 03:26:45;;;;;;;6.13;2.17;;;17.60;86.70;;;;;;5052358;28;20410;-79
2022/05/05 03:29:11;;;;;;;6.35;2.20;;;17.60;86.80;;;;;;5052234;28;20267;-79
2022/05/05 03:31:46;;;;;;;9.00;2.83;;;17.60;87.60;;;;;;5052034;28;20100;-78
2022/05/05 03:34:12;;;;;;;7.35;2.88;;;17.50;88.20;;;;;;5051948;28;20053;-79
2022/05/05 03:36:38;;;;;;;7.32;2.55;;;17.30;89.30;;;;;;5051741;28;20408;-77
2022/05/05 03:39:04;;;;;;;8.43;2.70;;;17.20;89.80;;;;;;5051878;28;20357;-78
2022/05/05 03:41:31;;;;;;;6.03;2.30;;;17.10;90.00;;;;;;5051864;28;20119;-78
2022/05/05 03:43:58;;;;;;;7.38;2.67;;;17.10;89.10;;;;;;5051749;28;20430;-78
2022/05/05 03:46:24;;;;;;;14.57;3.03;;;17.00;89.90;;;;;;5051972;28;20096;-78
2022/05/05 03:48:52;;;;;;;7.70;3.00;;;17.00;89.80;;;;;;5051582;28;20031;-78
2022/05/05 03:51:18;;;;;;;9.85;2.88;;;16.90;89.10;;;;;;5051528;28;20021;-78
2022/05/05 03:53:44;;;;;;;7.25;3.08;;;16.90;89.20;;;;;;5051776;28;20029;-79
2022/05/05 03:56:10;;;;;;;12.02;2.60;;;16.90;89.10;;;;;;5051922;28;20122;-78
2022/05/05 03:58:36;;;;;;;7.80;2.23;;;16.90;88.90;;;;;;5051569;28;20140;-79
2022/05/05 04:01:03;;;;;;;15.80;2.83;;;16.90;88.40;;;;;;5051832;28;20025;-78
2022/05/05 04:03:32;;;;;;;10.13;2.60;;;17.00;87.90;;;;;;5049321;28;20132;-78
2022/05/05 04:05:58;;;;;;;11.13;2.70;;;17.00;87.30;;;;;;5049870;28;20259;-78
2022/05/05 04:08:25;;;;;;;12.07;2.50;;;17.10;86.80;;;;;;5051717;28;20064;-79
2022/05/05 04:10:51;;;;;;;;;;;17.20;84.80;;;;;;5051572;28;20436;-78
2022/05/05 04:13:19;;;;;;;8.60;2.15;;;17.40;83.80;;;;;;5051255;28;20009;-78
2022/05/05 04:15:46;;;;;;;4.65;1.65;;;17.50;83.80;;;;;;5051213;28;20024;-78
2022/05/05 04:18:11;;;;;;;;;;;17.60;82.60;;;;;;5053023;28;20029;-80
2022/05/05 04:20:38;;;;;;;8.20;2.80;;;17.80;83.30;;;;;;5052719;28;19912;-79
2022/05/05 04:23:04;;;;;;;7.85;2.10;;;17.70;82.60;;;;;;5050966;28;20159;-78
2022/05/05 04:25:31;;;;;;;5.03;2.05;;;17.70;82.60;;;;;;5052610;28;20117;-79
2022/05/05 04:27:57;;;;;;;11.07;2.17;;;17.80;82.10;;;;;;5052319;28;20056;-79
2022/05/05 04:30:24;;;;;;;8.50;2.30;;;17.90;81.90;;;;;;5052734;28;20029;-79
2022/05/05 04:32:51;;;;;;;11.40;2.13;;;18.00;81.70;;;;;;5051925;28;20029;-77
2022/05/05 04:35:18;;;;;;;7.28;2.08;;;18.10;81.10;;;;;;5055692;28;20074;-78
2022/05/05 04:37:44;;;;;;;6.85;2.40;;;18.10;81.40;;;;;;5054607;28;20024;-78
2022/05/05 04:40:10;;;;;;;7.10;2.20;;;18.10;81.50;;;;;;5056083;28;20032;-79
2022/05/05 04:42:38;;;;;;;6.53;2.47;;;18.10;81.30;;;;;;5056728;28;20762;-79
2022/05/05 04:45:05;;;;;;;14.05;2.42;;;18.20;81.10;;;;;;5055626;28;20021;-79
2022/05/05 04:47:35;;;;;;;10.85;2.08;;;18.20;80.60;;;;;;5056006;28;20029;-79
2022/05/05 04:50:01;;;;;;;4.68;1.85;;;18.30;80.40;;;;;;5055561;28;20017;-78
2022/05/05 04:52:27;;;;;;;8.63;2.13;;;18.30;80.50;;;;;;5055260;28;20373;-78
2022/05/05 04:54:54;;;;;;;9.00;2.22;;;18.30;80.30;;;;;;5055792;28;20351;-79
2022/05/05 04:57:20;;;;;;;5.75;1.80;;;18.30;80.40;;;;;;5055397;28;20025;-78
2022/05/05 04:59:46;;;;;;;9.32;2.03;;;18.40;80.30;;;;;;5055837;28;20033;-78
2022/05/05 05:02:12;;;;;;;7.30;2.08;;;18.40;80.00;;;;;;5055981;28;20581;-78
2022/05/05 05:04:44;;;;;;;6.83;2.37;;;18.50;79.60;;;;;;5055533;28;20088;-78
2022/05/05 05:07:10;;;;;;;5.40;1.90;;;18.50;79.40;;;;;;5055387;28;20308;-78
2022/05/05 05:09:36;;;;;;;7.63;1.83;;;18.60;78.70;;;;;;5055316;28;20032;-78
2022/05/05 05:12:03;;;;;;;9.68;2.00;;;18.60;78.80;;;;;;5055286;28;20037;-78
2022/05/05 05:14:29;;;;;;;11.45;2.33;;;18.60;78.20;;;;;;5054953;28;20454;-78
2022/05/05 05:16:55;;;;;;;11.03;2.00;;;18.70;78.20;;;;;;5055474;28;20515;-77
2022/05/05 05:19:22;;;;;;;6.07;1.85;;;18.80;77.80;;;;;;5055140;28;20032;-75
2022/05/05 05:21:48;;;;;;;8.68;1.83;;;19.00;77.40;;;;;;5055018;28;20021;-77
2022/05/05 05:24:14;;;;;;;6.40;2.30;;;19.20;76.90;;;;;;5055311;28;20025;-78
2022/05/05 05:26:41;;;;;;;10.35;2.22;;;19.30;76.70;;;;;;5052771;28;20350;-78
2022/05/05 05:29:07;;;;;;;5.78;1.50;;;19.40;76.60;;;;;;5053890;28;20029;-78
2022/05/05 05:31:33;;;;;;;7.90;1.83;;;19.40;76.10;;;;;;5054402;28;20032;-79
2022/05/05 05:33:59;;;;;;;8.10;1.90;;;19.60;75.50;;;;;;5054669;28;20033;-79
2022/05/05 05:36:26;;;;;;;6.72;1.85;;;20.00;74.70;;;;;;5054797;28;20295;-77
2022/05/05 05:38:52;;;;;;;8.35;2.00;;;20.50;73.50;;;;;;5054893;28;20067;-78
2022/05/05 05:41:18;;;;;;;12.32;2.25;;;21.10;72.20;;;;;;5055265;28;20023;-77
2022/05/05 05:43:44;;;;;;;8.60;1.98;;;21.40;71.50;;;;;;5054932;28;20491;-78
2022/05/05 05:46:10;;;;;;;8.90;1.80;;;21.90;70.80;;;;;;5054507;28;20465;-77
2022/05/05 05:48:38;;;;;;;11.15;2.08;;;21.90;70.40;;;;;;5054068;28;20372;-77
2022/05/05 05:51:07;;;;;;;7.88;1.85;;;22.00;70.70;;;;;;5053619;28;20041;-78
2022/05/05 05:53:34;;;;;;;6.53;1.75;;;22.00;70.40;;;;;;5053480;28;20029;-78
2022/05/05 05:56:00;;;;;;;6.78;2.13;;;21.90;70.60;;;;;;5053409;28;20028;-78
2022/05/05 05:58:26;;;;;;;5.15;1.80;;;21.60;71.60;;;;;;5053449;28;20025;-77
2022/05/05 06:00:52;;;;;;;9.70;2.47;;;21.60;71.80;;;;;;5053322;28;20029;-76
2022/05/05 06:06:03;;;;;;;6.05;1.73;;;21.80;71.40;;;;;;5053004;28;20063;-76
2022/05/05 06:08:30;;;;;;;10.05;2.40;;;22.20;71.30;;;;;;5053654;28;20021;-77
2022/05/05 06:10:56;;;;;;;9.20;2.17;;;22.70;70.80;;;;;;5053269;28;20548;-76
2022/05/05 06:13:22;;;;;;;10.48;2.63;;;23.10;69.30;;;;;;5052907;28;20174;-77
2022/05/05 06:15:48;;;;;;;6.40;2.05;;;23.30;68.90;;;;;;5053018;28;20017;-77
2022/05/05 06:18:14;;;;;;;7.03;2.00;;;23.60;68.00;;;;;;5052033;28;20035;-80
2022/05/05 06:20:40;;;;;;;7.80;2.40;;;24.10;66.50;;;;;;5054195;28;20021;-80
2022/05/05 06:23:10;;;;;;;9.48;2.13;;;24.00;66.50;;;;;;5053690;28;20029;-81
2022/05/05 06:25:36;;;;;;;6.80;1.92;;;24.20;66.10;;;;;;5051937;28;20029;-78
2022/05/05 06:28:04;;;;;;;7.93;2.30;;;23.90;66.00;;;;;;5053809;28;20048;-81
2022/05/05 06:30:30;;;;;;;5.75;1.85;;;23.70;66.50;;;;;;5053503;28;20070;-79
2022/05/05 06:32:56;;;;;;;12.40;2.50;;;23.90;66.10;;;;;;5053475;28;20488;-79
2022/05/05 06:35:22;;;;;;;9.38;1.92;;;24.30;65.20;;;;;;5052150;28;20044;-81
2022/05/05 06:37:50;;;;;;;11.38;2.38;;;25.20;64.10;;;;;;5053792;28;20452;-80
2022/05/05 06:40:16;;;;;;;7.93;2.00;;;25.30;63.00;;;;;;5053286;28;20408;-78
2022/05/05 06:42:42;;;;;;;7.55;1.90;;;25.00;63.20;;;;;;5053721;28;20017;-79
2022/05/05 06:45:09;;;;;;;7.13;1.77;;;25.50;62.40;;;;;;5053280;28;20032;-77
2022/05/05 06:47:35;;;;;;;;;;;25.10;62.60;;;;;;5053671;28;20092;-78
2022/05/05 06:50:01;;;;;;;6.47;2.03;;;25.00;63.60;;;;;;5053096;28;20324;-77
2022/05/05 06:52:27;;;;;;;8.57;1.92;;;25.10;63.60;;;;;;5053373;28;20036;-76
2022/05/05 06:54:53;;;;;;;9.45;2.20;;;24.90;64.10;;;;;;5053092;28;20067;-75
2022/05/05 06:57:19;;;;;;;5.15;1.60;;;24.40;65.50;;;;;;5052173;28;20035;-75
2022/05/05 06:59:45;;;;;;;11.73;2.55;;;23.90;67.30;;;;;;5053225;28;20021;-75
2022/05/05 07:02:12;;;;;;;12.95;2.30;;;23.70;67.90;;;;;;5053075;28;20029;-77
2022/05/05 07:07:22;;;;;;;6.32;1.92;;;23.50;69.40;;;;;;5053551;28;20086;-77
2022/05/05 07:12:33;;;;;;;7.68;2.10;;;22.60;71.30;;;;;;5052741;28;20084;-77
2022/05/05 07:14:59;;;;;;;7.43;1.98;;;22.70;70.90;;;;;;5053160;28;20025;-77
2022/05/05 07:17:26;;;;;;;9.10;2.60;;;22.90;71.00;;;;;;5052867;28;20035;-78
2022/05/05 07:19:53;;;;;;;8.55;2.58;;;23.10;70.80;;;;;;5052749;28;20029;-77
2022/05/05 07:22:19;;;;;;;6.63;2.42;;;23.30;70.90;;;;;;5051866;28;20025;-73
2022/05/05 07:24:46;;;;;;;14.63;2.70;;;23.20;69.60;;;;;;5045272;28;20025;-78
2022/05/05 07:27:13;;;;;;;8.75;2.35;;;23.10;70.30;;;;;;5051160;28;20485;-77
2022/05/05 07:29:41;;;;;;;11.18;2.65;;;23.20;70.00;;;;;;5051363;28;20029;-76
2022/05/05 07:32:08;;;;;;;15.60;2.40;;;23.70;69.40;;;;;;5051137;28;20036;-78
2022/05/05 07:34:34;;;;;;;9.23;2.38;;;23.50;69.10;;;;;;5052494;28;20103;-77
2022/05/05 07:37:03;;;;;;;10.25;2.60;;;23.20;70.00;;;;;;5052731;28;20500;-78
2022/05/05 07:39:30;;;;;;;9.85;2.70;;;23.50;70.20;;;;;;5052492;28;20472;-77
2022/05/05 07:41:56;;;;;;;15.73;2.38;;;23.80;69.80;;;;;;5052332;28;20245;-76
2022/05/05 07:44:22;;;;;;;14.52;2.85;;;24.30;68.30;;;;;;5052329;28;20458;-77
2022/05/05 07:46:48;;;;;;;10.38;1.92;;;24.50;67.90;;;;;;5050156;28;20036;-77
2022/05/05 07:49:14;;;;;;;15.05;3.00;;;24.20;67.70;;;;;;5051533;28;20036;-78
2022/05/05 07:51:41;;;;;;;11.40;1.98;;;24.10;68.50;;;;;;5051338;28;20071;-77
2022/05/05 07:56:52;;;;;;;9.43;2.33;;;23.80;68.80;;;;;;5051677;28;19911;-78
2022/05/05 07:59:19;;;;;;;;;;;23.90;68.80;;;;;;5050092;28;20033;-77
2022/05/05 08:01:45;;;;;;;12.48;2.55;;;24.00;68.40;;;;;;5051148;28;19943;-76
2022/05/05 08:04:11;;;;;;;11.32;2.22;;;23.80;68.60;;;;;;5050880;28;20075;-77
2022/05/05 08:06:37;;;;;;;12.80;2.58;;;23.70;69.10;;;;;;5051377;28;20464;-78
2022/05/05 08:09:03;;;;;;;7.90;2.60;;;23.50;69.70;;;;;;5053944;28;20077;-77
2022/05/05 08:11:29;;;;;;;14.40;2.33;;;23.40;70.20;;;;;;5055619;28;20021;-77
2022/05/05 08:13:55;;;;;;;13.05;2.70;;;23.60;70.20;;;;;;5055333;28;20319;-78
2022/05/05 08:16:22;;;;;;;9.73;2.60;;;23.80;69.50;;;;;;5055710;28;20477;-77
2022/05/05 08:18:49;;;;;;;16.20;2.83;;;24.20;69.00;;;;;;5055752;28;20390;-77
2022/05/05 08:21:15;;;;;;;12.75;2.40;;;24.30;68.30;;;;;;5055812;28;20025;-77
2022/05/05 08:23:41;;;;;;;9.07;1.95;;;24.40;67.60;;;;;;5055972;28;20025;-77
2022/05/05 08:28:52;;;;;;;15.20;3.08;;;23.80;68.70;;;;;;5055625;28;20531;-77
2022/05/05 08:31:18;;;;;;;12.80;2.30;;;24.20;68.20;;;;;;5055668;28;20021;-77
2022/05/05 08:33:44;;;;;;;15.52;2.47;;;24.20;66.50;;;;;;5055682;28;20029;-77
2022/05/05 08:36:11;;;;;;;14.18;3.03;;;24.20;66.50;;;;;;5055836;28;20057;-78
2022/05/05 08:38:37;;;;;;;28.25;3.25;;;24.40;66.40;;;;;;5056046;28;20047;-77
2022/05/05 08:41:04;;;;;;;18.55;2.47;;;24.60;65.80;;;;;;5055521;28;20051;-77
2022/05/05 08:43:30;;;;;;;;;;;24.80;64.90;;;;;;5055608;28;20017;-77
2022/05/05 08:45:58;;;;;;;13.13;3.00;;;24.60;65.00;;;;;;5055039;28;19955;-76
2022/05/05 08:48:24;;;;;;;13.45;2.22;;;24.60;64.20;;;;;;5055105;28;20056;-77
2022/05/05 08:51:00;;;;;;;14.77;2.92;;;24.80;63.60;;;;;;5054681;28;20104;-76
2022/05/05 08:53:36;;;;;;;21.40;3.20;;;25.10;63.40;;;;;;5043670;28;20048;-77
2022/05/05 08:56:04;;;;;;;12.48;2.40;;;25.20;63.30;;;;;;5052927;28;20052;-76
2022/05/05 08:58:31;;;;;;;13.75;2.83;;;25.10;63.40;;;;;;5055052;28;20099;-77
2022/05/05 09:00:57;;;;;;;18.15;3.20;;;25.20;63.60;;;;;;5054561;28;20079;-76
2022/05/05 09:03:24;;;;;;;13.52;2.30;;;25.00;63.30;;;;;;5048471;28;20102;-77
2022/05/05 09:05:53;;;;;;;15.57;3.17;;;25.20;62.30;;;;;;5035217;28;20025;-75
2022/05/05 09:08:30;;;;;;;14.15;3.13;;;25.50;62.60;;;;;;5033506;28;20033;-77
2022/05/05 09:11:03;;;;;;;13.18;2.97;;;25.40;62.10;;;;;;5035005;28;20072;-71
2022/05/05 09:13:31;;;;;;;11.38;2.58;;;25.20;62.40;;;;;;5054277;28;20060;-76
2022/05/05 09:15:58;;;;;;;7.82;2.15;;;24.70;62.80;;;;;;5054439;28;20025;-78
2022/05/05 09:18:33;;;;;;;;;;;24.70;63.00;;;;;;5036572;28;20504;-76
2022/05/05 09:21:03;;;;;;;10.15;2.60;;;24.60;62.90;;;;;;5053755;28;19905;-77
2022/05/05 09:23:34;;;;;;;14.77;2.67;;;24.70;63.10;;;;;;5054292;28;20017;-77
2022/05/05 09:26:01;;;;;;;14.52;2.45;;;24.50;63.20;;;;;;5054627;28;20104;-77
2022/05/05 09:28:32;;;;;;;15.27;2.45;;;24.20;63.50;;;;;;5054418;28;20025;-77
2022/05/05 09:31:04;;;;;;;10.00;2.67;;;24.40;63.70;;;;;;5054835;28;20032;-77
2022/05/05 09:33:43;;;;;;;25.80;2.95;;;24.40;63.60;;;;;;5053971;28;20083;-77
2022/05/05 09:36:15;;;;;;;11.75;2.22;;;24.30;64.10;;;;;;5053854;28;20025;-78
2022/05/05 09:39:04;;;;;;;12.20;2.50;;;24.30;64.00;;;;;;5054571;28;20029;-78
2022/05/05 09:41:33;;;;;;;23.95;2.92;;;24.40;64.50;;;;;;5054252;28;20021;-77
2022/05/05 09:44:00;;;;;;;8.82;2.08;;;24.40;63.80;;;;;;5054079;28;20025;-78
2022/05/05 09:46:26;;;;;;;14.32;2.42;;;24.50;63.60;;;;;;5054052;28;20480;-77
2022/05/05 09:48:53;;;;;;;11.30;1.80;;;24.50;63.90;;;;;;5053668;28;20029;-77
2022/05/05 09:51:19;;;;;;;19.98;2.60;;;24.50;63.90;;;;;;5053374;28;20028;-77
2022/05/05 09:59:29;;;;;;;18.75;3.83;;;24.90;63.80;;;;;;5053299;28;20362;-77
2022/05/05 10:02:04;;;;;;;25.05;3.72;;;25.10;63.60;;;;;;5052018;28;20085;-79
2022/05/05 10:04:39;;;;;;;18.08;2.63;;;25.30;63.30;;;;;;5052734;28;20089;-77
2022/05/05 10:07:07;;;;;;;14.40;2.75;;;25.40;62.40;;;;;;5051180;28;20117;-76
2022/05/05 10:09:34;;;;;;;15.23;2.38;;;25.30;63.00;;;;;;5052609;28;20029;-78
2022/05/05 10:12:01;;;;;;;22.15;2.90;;;25.20;62.90;;;;;;5052590;28;20037;-77
2022/05/05 10:14:28;;;;;;;17.73;2.55;;;25.20;62.40;;;;;;5052455;28;20033;-77
2022/05/05 10:16:55;;;;;;;24.05;3.30;;;25.40;62.40;;;;;;5052787;28;20035;-78
2022/05/05 10:19:21;;;;;;;13.98;2.45;;;25.50;62.30;;;;;;5052059;28;20021;-77
2022/05/05 10:22:03;;;;;;;22.88;2.83;;;25.40;62.30;;;;;;5051484;28;20121;-79
2022/05/05 10:24:37;;;;;;;30.05;3.65;;;25.50;62.60;;;;;;5053605;28;20126;-78
2022/05/05 10:27:04;;;;;;;26.45;2.42;;;25.40;62.00;;;;;;5051500;28;20175;-79
2022/05/05 10:29:40;;;;;;;31.08;3.08;;;25.10;62.30;;;;;;5052976;28;20105;-78
2022/05/05 10:32:19;;;;;;;13.50;2.15;;;25.00;62.60;;;;;;5051620;28;20488;-78
2022/05/05 10:35:07;;;;;;;25.60;2.28;;;24.70;63.00;;;;;;5053182;28;20033;-78
2022/05/05 10:37:37;;;;;;;18.58;2.63;;;24.70;64.00;;;;;;5051143;28;20053;-78
2022/05/05 10:40:08;;;;;;;15.13;2.35;;;24.80;63.80;;;;;;5051241;28;20048;-77
2022/05/05 10:42:51;;;;;;;13.90;2.20;;;25.10;62.80;;;;;;5052252;28;20029;-78
2022/05/05 10:45:33;;;;;;;25.08;2.60;;;25.30;63.40;;;;;;5052630;28;20160;-77
2022/05/05 10:48:00;;;;;;;24.38;2.70;;;25.70;62.60;;;;;;5052595;28;20535;-77
2022/05/05 10:50:49;;;;;;;32.00;3.05;;;25.70;62.20;;;;;;5051732;28;20051;-78
2022/05/05 10:53:40;;;;;;;21.48;2.58;;;25.80;62.30;;;;;;5052334;28;20174;-78
2022/05/05 10:56:32;;;;;;;18.27;2.40;;;25.70;62.50;;;;;;5051241;28;20099;-79
2022/05/05 10:59:09;;;;;;;17.15;2.20;;;25.90;62.50;;;;;;5050599;28;20044;-77
2022/05/05 11:01:44;;;;;;;13.15;2.28;;;25.70;62.80;;;;;;5050886;28;20025;-77
2022/05/05 11:04:17;;;;;;;19.95;2.42;;;25.60;62.40;;;;;;5050405;28;20071;-78
2022/05/05 11:06:44;;;;;;;19.10;2.40;;;25.70;62.90;;;;;;5051441;28;20021;-77
2022/05/05 11:09:31;;;;;;;15.02;2.40;;;25.70;64.30;;;;;;5049799;28;20020;-77
2022/05/05 11:12:20;;;;;;;14.65;2.17;;;25.50;63.60;;;;;;5049780;28;20131;-77
2022/05/05 11:21:37;;;;;;;27.02;2.70;;;25.30;63.10;;;;;;5051968;28;20098;-78
2022/05/05 11:23:49;;;;;;;13.43;2.25;;;25.40;63.10;;;;;;5041351;28;20048;-77
2022/05/05 11:26:17;;;;;;;20.65;2.55;;;25.30;62.30;;;;;;5052108;28;20099;-77
2022/05/05 11:28:47;;;;;;;25.30;2.67;;;25.30;62.90;;;;;;5051829;28;20028;-75
2022/05/05 11:31:31;;;;;;;16.42;2.30;;;25.10;63.90;;;;;;5052889;28;20021;-77
2022/05/05 11:34:04;;;;;;;12.93;2.38;;;25.20;65.30;;;;;;5052275;28;20037;-77
2022/05/05 11:36:35;;;;;;;24.30;2.75;;;25.40;64.20;;;;;;5052165;28;20108;-77
2022/05/05 11:39:07;;;;;;;11.38;2.20;;;25.20;62.60;;;;;;5051945;28;20437;-77
2022/05/05 11:41:35;;;;;;;10.38;1.83;;;25.10;63.10;;;;;;5052018;28;20033;-77
2022/05/05 11:44:17;;;;;;;13.50;2.15;;;25.20;63.30;;;;;;5051742;28;20530;-76
2022/05/05 11:46:44;;;;;;;22.00;2.65;;;25.30;63.90;;;;;;5051823;28;20525;-77
2022/05/05 11:49:10;;;;;;;;;;;25.60;63.20;;;;;;5049474;28;20358;-77
2022/05/05 11:51:36;;;;;;;16.90;2.30;;;25.50;61.80;;;;;;5031583;28;19912;-77
2022/05/05 11:54:04;;;;;;;20.83;3.13;;;25.50;62.70;;;;;;5030510;28;20037;-77
2022/05/05 11:56:30;;;;;;;10.63;1.75;;;25.30;62.50;;;;;;5050360;28;20017;-77
2022/05/05 12:02:11;;;;;;;19.20;2.80;;;24.80;62.70;;;;;;5050395;28;20044;-78
2022/05/05 12:04:57;;;;;;;8.60;1.90;;;24.80;62.60;;;;;;5029712;28;20085;-76
2022/05/05 12:07:27;;;;;;;18.10;2.08;;;24.80;62.30;;;;;;5045718;28;20044;-77
2022/05/05 12:10:02;;;;;;;15.55;2.05;;;24.60;63.60;;;;;;5052077;28;20340;-77
2022/05/05 12:12:30;;;;;;;24.85;2.60;;;24.90;63.80;;;;;;5052333;28;20453;-78
2022/05/05 12:14:59;;;;;;;29.00;2.72;;;25.10;62.70;;;;;;5051088;28;20090;-77
2022/05/05 12:17:42;;;;;;;36.90;2.85;;;25.30;62.50;;;;;;5052550;28;20422;-79
2022/05/05 12:20:11;;;;;;;30.80;2.85;;;25.40;62.60;;;;;;5052814;28;20021;-77
2022/05/05 12:22:39;;;;;;;12.27;2.03;;;25.30;62.30;;;;;;5052940;28;20115;-78
2022/05/05 12:25:16;;;;;;;23.58;2.55;;;25.20;62.90;;;;;;5038666;28;20032;-78
2022/05/05 12:27:58;;;;;;;6.55;2.05;;;25.20;63.40;;;;;;5032689;28;20057;-78
2022/05/05 12:30:31;;;;;;;12.32;1.67;;;25.00;62.60;;;;;;5033010;28;20021;-78
2022/05/05 12:32:57;;;;;;;17.40;2.17;;;24.60;63.50;;;;;;5032236;28;20045;-77
2022/05/05 12:35:37;;;;;;;12.93;1.85;;;24.40;64.10;;;;;;5031190;28;20029;-78
2022/05/05 12:38:05;;;;;;;19.83;2.45;;;24.30;64.20;;;;;;5032087;28;20055;-76
2022/05/05 12:40:32;;;;;;;14.07;2.10;;;24.40;64.30;;;;;;5032164;28;20036;-76
2022/05/05 12:43:13;;;;;;;20.75;2.63;;;24.50;64.20;;;;;;5032618;28;20052;-76
2022/05/05 12:45:41;;;;;;;14.25;2.35;;;24.50;64.80;;;;;;5035285;28;20036;-76
2022/05/05 12:48:10;;;;;;;13.15;2.17;;;24.50;64.50;;;;;;5050234;28;20055;-77
2022/05/05 12:50:40;;;;;;;15.05;2.45;;;24.60;64.60;;;;;;5050452;28;20124;-76
2022/05/05 13:01:34;;;;;;;22.80;2.45;;;25.30;63.90;;;;;;5054277;28;20044;-71
2022/05/05 13:04:07;;;;;;;13.55;2.45;;;25.30;63.40;;;;;;5053837;28;20442;-71
2022/05/05 13:06:38;;;;;;;15.82;2.33;;;25.20;63.70;;;;;;5051576;28;20345;-71
2022/05/05 13:09:08;;;;;;;10.05;1.80;;;25.20;64.00;;;;;;5053077;28;20044;-76
2022/05/05 13:11:39;;;;;;;20.48;2.80;;;25.10;63.90;;;;;;5054939;28;20025;-76
2022/05/05 13:14:05;;;;;;;17.80;2.10;;;24.90;64.60;;;;;;5055659;28;20035;-77
2022/05/05 13:16:32;;;;;;;13.55;2.38;;;25.10;64.50;;;;;;5055428;28;20013;-77
2022/05/05 13:18:59;;;;;;;14.27;2.22;;;25.20;63.30;;;;;;5055720;28;20108;-77
2022/05/05 13:21:29;;;;;;;22.30;3.05;;;25.10;63.50;;;;;;5055521;28;20025;-78
2022/05/05 13:23:55;;;;;;;21.73;2.63;;;24.80;64.10;;;;;;5053969;28;20052;-77
2022/05/05 13:26:21;;;;;;;14.75;2.30;;;24.80;64.50;;;;;;5055439;28;20103;-77
2022/05/05 13:28:48;;;;;;;9.68;1.60;;;24.80;64.50;;;;;;5055523;28;20029;-77
2022/05/05 13:31:14;;;;;;;16.38;2.58;;;24.60;64.70;;;;;;5055267;28;20051;-76
2022/05/05 13:33:41;;;;;;;25.42;2.63;;;24.60;64.60;;;;;;5054960;28;20366;-75
2022/05/05 13:36:07;;;;;;;11.98;1.55;;;24.40;63.90;;;;;;5055062;28;20029;-75
2022/05/05 13:38:34;;;;;;;11.45;1.90;;;24.40;64.50;;;;;;5055194;28;20035;-75
2022/05/05 13:41:00;;;;;;;13.32;2.13;;;24.20;65.70;;;;;;5055360;28;20154;-75
2022/05/05 13:43:26;;;;;;;14.15;1.95;;;24.40;66.00;;;;;;5055188;28;20075;-76